Time;durP1;ratioP1;P1;durP2;ratioP2;P2;SDS_P1;SDS_P2;PMS_P1;PMS_P2;Temp;Humidity;BMP_temperature;BMP_pressure;BME280_temperature;BME280_humidity;BME280_pressure;Samples;Min_cycle;Max_cycle;Signal;HPM_P1;HPM_P2
2022/08/28 00:02:14;;;;;;;3.97;3.60;;;24.00;94.80;;;;;;5054179;28;20406;-28
2022/08/28 00:04:40;;;;;;;3.78;3.47;;;24.00;94.70;;;;;;5054186;28;20025;-26
2022/08/28 00:07:06;;;;;;;3.78;3.47;;;24.00;94.70;;;;;;5053966;28;20029;-27
2022/08/28 00:09:32;;;;;;;3.53;3.22;;;24.00;95.10;;;;;;5053915;28;20027;-27
2022/08/28 00:11:57;;;;;;;3.20;2.95;;;24.00;94.70;;;;;;5053852;28;20029;-27
2022/08/28 00:14:25;;;;;;;3.70;3.40;;;24.00;94.70;;;;;;5053991;28;20036;-27
2022/08/28 00:16:51;;;;;;;3.40;3.10;;;24.00;94.70;;;;;;5053971;28;20028;-27
2022/08/28 00:19:18;;;;;;;3.78;3.47;;;24.00;94.70;;;;;;5053744;28;20025;-28
2022/08/28 00:21:45;;;;;;;3.60;3.30;;;24.00;94.70;;;;;;5053816;28;20060;-27
2022/08/28 00:24:11;;;;;;;3.60;3.08;;;24.00;94.70;;;;;;5053807;28;20025;-28
2022/08/28 00:29:22;;;;;;;3.25;3.05;;;24.00;94.60;;;;;;5053661;28;20071;-27
2022/08/28 00:31:48;;;;;;;3.17;2.95;;;24.00;94.60;;;;;;5053515;28;20037;-26
2022/08/28 00:34:14;;;;;;;3.15;2.95;;;24.00;94.50;;;;;;5053556;28;20028;-26
2022/08/28 00:36:40;;;;;;;3.50;3.20;;;24.00;94.50;;;;;;5053395;28;20037;-27
2022/08/28 00:39:07;;;;;;;3.97;3.15;;;24.00;94.50;;;;;;5053403;28;20032;-28
2022/08/28 00:41:34;;;;;;;3.33;2.88;;;24.00;94.50;;;;;;5053351;28;20025;-25
2022/08/28 00:44:14;;;;;;;3.63;3.08;;;24.00;94.50;;;;;;5053467;28;20098;-27
2022/08/28 00:46:42;;;;;;;3.22;2.92;;;24.00;94.50;;;;;;5053291;28;20478;-27
2022/08/28 00:49:09;;;;;;;4.70;3.00;;;24.00;94.50;;;;;;5053153;28;20061;-26
2022/08/28 00:54:21;;;;;;;3.33;3.03;;;24.00;94.50;;;;;;5053309;28;20032;-27
2022/08/28 00:56:48;;;;;;;4.00;2.75;;;24.00;94.50;;;;;;5035439;28;20032;-26
2022/08/28 00:59:17;;;;;;;3.30;3.00;;;23.90;94.40;;;;;;5052842;28;20060;-27
2022/08/28 01:01:45;;;;;;;3.13;2.53;;;23.90;94.40;;;;;;5053035;28;20044;-27
2022/08/28 01:04:16;;;;;;;2.88;2.60;;;24.00;94.50;;;;;;5052874;28;20529;-26
2022/08/28 01:06:45;;;;;;;3.00;2.70;;;24.00;94.50;;;;;;5052519;28;20544;-27
2022/08/28 01:09:11;;;;;;;4.13;2.80;;;23.90;94.40;;;;;;5052820;28;20025;-27
2022/08/28 01:11:46;;;;;;;2.92;2.72;;;23.90;94.40;;;;;;5034803;28;20035;-27
2022/08/28 01:14:13;;;;;;;2.60;2.40;;;23.90;94.40;;;;;;5052880;28;20500;-26
2022/08/28 01:16:41;;;;;;;3.17;2.78;;;23.90;94.40;;;;;;5052783;28;20029;-26
2022/08/28 01:19:14;;;;;;;2.65;2.45;;;23.90;94.40;;;;;;5052949;28;20017;-27
2022/08/28 01:21:57;;;;;;;3.58;2.88;;;23.90;94.40;;;;;;5052664;28;20100;-27
2022/08/28 01:24:23;;;;;;;2.78;2.58;;;23.90;94.40;;;;;;5053111;28;20454;-26
2022/08/28 01:26:49;;;;;;;2.97;2.78;;;23.90;94.40;;;;;;5052730;28;20029;-26
2022/08/28 01:29:15;;;;;;;2.90;2.60;;;23.90;94.40;;;;;;5052460;28;20504;-26
2022/08/28 01:31:41;;;;;;;4.40;2.50;;;23.90;94.40;;;;;;5052412;28;20033;-26
2022/08/28 01:34:10;;;;;;;4.10;2.67;;;23.90;94.40;;;;;;5052551;28;20025;-27
2022/08/28 01:36:35;;;;;;;2.75;2.50;;;23.90;94.40;;;;;;5052256;28;20049;-26
2022/08/28 01:39:13;;;;;;;3.13;2.80;;;23.90;94.40;;;;;;5052167;28;20056;-27
2022/08/28 01:41:46;;;;;;;2.65;2.45;;;23.90;94.40;;;;;;5052303;28;20385;-26
2022/08/28 01:44:14;;;;;;;2.85;2.47;;;23.90;94.40;;;;;;5052461;28;20025;-26
2022/08/28 01:46:40;;;;;;;2.92;2.72;;;23.90;94.40;;;;;;5052235;28;20505;-27
2022/08/28 01:49:07;;;;;;;2.72;2.53;;;23.90;94.40;;;;;;5052019;28;20040;-27
2022/08/28 01:51:33;;;;;;;3.67;2.40;;;23.90;94.40;;;;;;5052422;28;20410;-27
2022/08/28 01:53:59;;;;;;;3.25;2.78;;;23.90;94.40;;;;;;5052388;28;20068;-26
2022/08/28 01:56:24;;;;;;;3.35;2.58;;;23.90;94.40;;;;;;5034112;28;20077;-26
2022/08/28 01:58:51;;;;;;;3.03;2.72;;;23.80;94.40;;;;;;5051983;28;20098;-27
2022/08/28 02:01:20;;;;;;;2.60;2.40;;;23.90;94.40;;;;;;5052024;28;20025;-26
2022/08/28 02:03:46;;;;;;;2.90;2.70;;;23.90;94.40;;;;;;5051916;28;20032;-26
2022/08/28 02:06:12;;;;;;;2.92;2.70;;;23.80;94.30;;;;;;5051897;28;20135;-27
2022/08/28 02:08:38;;;;;;;2.78;2.58;;;23.90;94.40;;;;;;5051789;28;20517;-28
2022/08/28 02:11:06;;;;;;;3.22;2.38;;;23.80;94.30;;;;;;5051767;28;20025;-26
2022/08/28 02:13:32;;;;;;;3.00;2.72;;;23.80;94.30;;;;;;5051918;28;20029;-27
2022/08/28 02:15:58;;;;;;;2.20;2.00;;;23.80;94.30;;;;;;5051810;28;20401;-27
2022/08/28 02:18:23;;;;;;;2.30;2.10;;;23.80;94.40;;;;;;5051665;28;20021;-26
2022/08/28 02:20:49;;;;;;;2.92;2.70;;;23.80;94.40;;;;;;5051728;28;20098;-26
2022/08/28 02:23:15;;;;;;;3.53;2.50;;;23.80;94.30;;;;;;5051852;28;20043;-26
2022/08/28 02:25:41;;;;;;;2.50;2.30;;;23.80;94.40;;;;;;5051743;28;20041;-26
2022/08/28 02:28:07;;;;;;;2.58;2.38;;;23.80;94.50;;;;;;5051852;28;20482;-26
2022/08/28 02:30:33;;;;;;;3.00;2.70;;;23.80;94.40;;;;;;5051524;28;20411;-25
2022/08/28 02:32:59;;;;;;;2.40;2.20;;;23.80;94.40;;;;;;5051640;28;20021;-27
2022/08/28 02:35:25;;;;;;;2.42;2.22;;;23.80;94.40;;;;;;5051700;28;20040;-26
2022/08/28 02:37:51;;;;;;;2.55;2.35;;;23.80;94.40;;;;;;5051534;28;20112;-26
2022/08/28 02:40:20;;;;;;;2.40;2.20;;;23.80;94.30;;;;;;5051476;28;20482;-27
2022/08/28 02:42:45;;;;;;;2.63;2.42;;;23.80;94.40;;;;;;5051647;28;20539;-25
2022/08/28 02:45:13;;;;;;;3.05;2.47;;;23.80;94.40;;;;;;5052105;28;20112;-26
2022/08/28 02:47:41;;;;;;;2.63;2.42;;;23.80;94.40;;;;;;5051318;28;20161;-26
2022/08/28 02:50:08;;;;;;;2.58;2.33;;;23.80;94.40;;;;;;5051446;28;20032;-26
2022/08/28 02:52:36;;;;;;;2.60;2.40;;;23.80;94.40;;;;;;5051594;28;20056;-25
2022/08/28 02:55:03;;;;;;;4.18;2.60;;;23.80;94.40;;;;;;5051711;28;20466;-26
2022/08/28 02:57:29;;;;;;;2.72;2.53;;;23.80;94.40;;;;;;5051663;28;20036;-27
2022/08/28 02:59:55;;;;;;;2.92;2.50;;;23.80;94.40;;;;;;5051993;28;20131;-27
2022/08/28 03:02:21;;;;;;;4.03;2.65;;;23.80;94.40;;;;;;5051333;28;20100;-26
2022/08/28 03:04:47;;;;;;;3.15;2.83;;;23.80;94.40;;;;;;5051419;28;20474;-26
2022/08/28 03:07:14;;;;;;;3.63;2.92;;;23.80;94.40;;;;;;5051354;28;20035;-26
2022/08/28 03:09:42;;;;;;;3.10;2.80;;;23.80;94.40;;;;;;5051295;28;20040;-26
2022/08/28 03:12:09;;;;;;;2.88;2.67;;;23.80;94.40;;;;;;5051205;28;20032;-27
2022/08/28 03:14:35;;;;;;;3.17;2.80;;;23.80;94.50;;;;;;5051280;28;20048;-26
2022/08/28 03:17:01;;;;;;;3.25;2.95;;;23.70;94.50;;;;;;5051515;28;20021;-26
2022/08/28 03:19:27;;;;;;;3.35;3.00;;;23.70;94.60;;;;;;5051148;28;20140;-27
2022/08/28 03:21:53;;;;;;;2.92;2.72;;;23.70;94.50;;;;;;5051261;28;20092;-26
2022/08/28 03:24:19;;;;;;;3.13;2.83;;;23.70;94.50;;;;;;5051251;28;20048;-26
2022/08/28 03:26:45;;;;;;;3.38;2.92;;;23.70;94.50;;;;;;5051234;28;20083;-26
2022/08/28 03:29:11;;;;;;;4.68;3.20;;;23.70;94.50;;;;;;5053284;28;20025;-26
2022/08/28 03:31:37;;;;;;;3.50;3.20;;;23.70;94.50;;;;;;5054671;28;20032;-25
2022/08/28 03:34:04;;;;;;;3.80;3.08;;;23.70;94.50;;;;;;5054778;28;20107;-26
2022/08/28 03:36:31;;;;;;;3.97;3.08;;;23.70;94.60;;;;;;5054612;28;20029;-25
2022/08/28 03:39:00;;;;;;;3.42;3.08;;;23.70;94.60;;;;;;5054533;28;20025;-26
2022/08/28 03:41:28;;;;;;;4.13;3.67;;;23.70;94.60;;;;;;5054617;28;20078;-26
2022/08/28 03:43:56;;;;;;;3.42;3.13;;;23.70;94.60;;;;;;5054521;28;20112;-25
2022/08/28 03:46:23;;;;;;;3.75;3.35;;;23.70;94.60;;;;;;5054452;28;20030;-26
2022/08/28 03:48:50;;;;;;;5.40;3.75;;;23.70;94.60;;;;;;5054358;28;20028;-26
2022/08/28 03:51:23;;;;;;;3.97;3.58;;;23.70;94.70;;;;;;5054307;28;20032;-27
2022/08/28 03:53:49;;;;;;;4.05;3.65;;;23.70;94.60;;;;;;5054407;28;20107;-26
2022/08/28 03:56:21;;;;;;;4.55;3.47;;;23.70;94.70;;;;;;5054189;28;20025;-26
2022/08/28 03:58:50;;;;;;;3.58;3.20;;;23.70;94.70;;;;;;5054260;28;20017;-26
2022/08/28 04:01:16;;;;;;;6.00;3.50;;;23.70;94.70;;;;;;5054168;28;20021;-26
2022/08/28 04:03:43;;;;;;;3.70;3.40;;;23.70;94.70;;;;;;5054542;28;20037;-26
2022/08/28 04:06:09;;;;;;;4.22;3.75;;;23.70;94.70;;;;;;5054105;28;20056;-26
2022/08/28 04:08:35;;;;;;;4.03;3.28;;;23.70;94.70;;;;;;5054000;28;20036;-27
2022/08/28 04:11:01;;;;;;;5.50;3.78;;;23.70;94.70;;;;;;5053825;28;20028;-26
2022/08/28 04:13:27;;;;;;;4.30;3.53;;;23.60;94.70;;;;;;5054113;28;20143;-26
2022/08/28 04:15:58;;;;;;;3.78;3.42;;;23.60;94.70;;;;;;5053929;28;20052;-27
2022/08/28 04:18:25;;;;;;;4.05;3.58;;;23.60;94.70;;;;;;5053875;28;20025;-27
2022/08/28 04:21:06;;;;;;;3.78;3.38;;;23.60;94.70;;;;;;5053857;28;20074;-25
2022/08/28 04:23:33;;;;;;;4.28;3.60;;;23.60;94.70;;;;;;5053760;28;20108;-26
2022/08/28 04:25:59;;;;;;;3.92;3.50;;;23.70;95.10;;;;;;5053748;28;20466;-27
2022/08/28 04:28:25;;;;;;;4.22;3.83;;;23.60;94.70;;;;;;5053694;28;20044;-26
2022/08/28 04:30:53;;;;;;;4.13;3.72;;;23.60;94.70;;;;;;5053456;28;20017;-25
2022/08/28 04:33:20;;;;;;;4.82;3.80;;;23.60;94.80;;;;;;5053661;28;20025;-26
2022/08/28 04:35:45;;;;;;;4.45;3.80;;;23.70;94.80;;;;;;5053536;28;20025;-27
2022/08/28 04:38:11;;;;;;;4.38;3.97;;;23.70;94.80;;;;;;5053324;28;20082;-26
2022/08/28 04:40:40;;;;;;;4.60;3.70;;;23.60;94.80;;;;;;5052258;28;20498;-26
2022/08/28 04:43:06;;;;;;;4.40;3.75;;;23.60;94.80;;;;;;5053452;28;20029;-26
2022/08/28 04:45:32;;;;;;;5.50;3.97;;;23.60;94.80;;;;;;5053568;28;20090;-26
2022/08/28 04:47:58;;;;;;;3.92;3.53;;;23.60;94.80;;;;;;5053294;28;20032;-27
2022/08/28 04:50:24;;;;;;;4.78;3.83;;;23.60;94.80;;;;;;5052931;28;20024;-27
2022/08/28 04:52:50;;;;;;;4.50;3.55;;;23.60;94.80;;;;;;5053215;28;20017;-27
2022/08/28 04:55:16;;;;;;;5.00;4.18;;;23.60;94.80;;;;;;5053320;28;20024;-26
2022/08/28 04:57:42;;;;;;;7.32;3.90;;;23.60;94.80;;;;;;5053122;28;20463;-25
2022/08/28 05:00:10;;;;;;;5.40;4.05;;;23.60;94.80;;;;;;5052881;28;20034;-26
2022/08/28 05:02:36;;;;;;;4.88;3.70;;;23.60;94.80;;;;;;5053118;28;20044;-27
2022/08/28 05:05:02;;;;;;;5.30;4.22;;;23.60;94.80;;;;;;5052944;28;20134;-26
2022/08/28 05:07:28;;;;;;;4.40;4.00;;;23.60;94.80;;;;;;5052883;28;20021;-25
2022/08/28 05:09:54;;;;;;;4.40;3.83;;;23.60;94.90;;;;;;5052761;28;20021;-27
2022/08/28 05:12:20;;;;;;;5.63;4.22;;;23.60;94.80;;;;;;5052873;28;20497;-26
2022/08/28 05:14:47;;;;;;;4.13;3.70;;;23.60;94.90;;;;;;5052898;28;20021;-26
2022/08/28 05:17:13;;;;;;;4.53;4.10;;;23.60;94.90;;;;;;5052807;28;20013;-27
2022/08/28 05:19:40;;;;;;;4.47;3.53;;;23.60;94.90;;;;;;5052571;28;20051;-26
2022/08/28 05:22:07;;;;;;;4.63;3.95;;;23.60;94.90;;;;;;5052687;28;20056;-25
2022/08/28 05:24:33;;;;;;;4.93;4.15;;;23.60;94.90;;;;;;5052716;28;20043;-27
2022/08/28 05:26:59;;;;;;;4.47;3.97;;;23.60;94.90;;;;;;5052596;28;20071;-27
2022/08/28 05:29:24;;;;;;;5.13;4.05;;;23.60;94.90;;;;;;5034630;28;20029;-27
2022/08/28 05:31:50;;;;;;;5.03;3.72;;;23.60;94.90;;;;;;5052373;28;20029;-26
2022/08/28 05:34:16;;;;;;;4.20;3.80;;;23.60;95.00;;;;;;5052399;28;20134;-27
2022/08/28 05:36:42;;;;;;;4.35;3.95;;;23.50;94.90;;;;;;5052864;28;20540;-25
2022/08/28 05:39:10;;;;;;;5.53;3.45;;;23.50;94.90;;;;;;5052357;28;20029;-25
2022/08/28 05:41:39;;;;;;;4.75;4.25;;;23.50;95.00;;;;;;5052353;28;20029;-26
2022/08/28 05:44:08;;;;;;;4.85;4.35;;;23.50;95.00;;;;;;5052402;28;20398;-25
2022/08/28 05:46:36;;;;;;;5.50;4.10;;;23.50;95.00;;;;;;5052327;28;20036;-25
2022/08/28 05:49:03;;;;;;;5.00;4.15;;;23.50;95.00;;;;;;5052119;28;20036;-25
2022/08/28 05:51:30;;;;;;;5.03;4.13;;;23.50;95.00;;;;;;5051793;28;20398;-25
2022/08/28 05:53:57;;;;;;;7.00;4.25;;;23.50;95.00;;;;;;5052410;28;20080;-25
2022/08/28 05:56:28;;;;;;;6.40;4.53;;;23.50;95.00;;;;;;5052137;28;20071;-25
2022/08/28 05:58:55;;;;;;;6.15;3.95;;;23.50;95.10;;;;;;5052111;28;20023;-25
2022/08/28 06:01:29;;;;;;;5.07;4.57;;;23.50;95.10;;;;;;5051887;28;20037;-25
2022/08/28 06:03:58;;;;;;;4.45;4.05;;;23.50;95.10;;;;;;5052172;28;20062;-25
2022/08/28 06:06:26;;;;;;;4.82;4.20;;;23.40;95.10;;;;;;5052024;28;20025;-26
2022/08/28 06:09:05;;;;;;;4.93;4.35;;;23.40;95.10;;;;;;5051950;28;20022;-25
2022/08/28 06:11:32;;;;;;;5.05;4.55;;;23.50;95.10;;;;;;5051864;28;20024;-25
2022/08/28 06:14:00;;;;;;;4.70;4.07;;;23.40;95.10;;;;;;5051890;28;20313;-25
2022/08/28 06:16:26;;;;;;;5.43;4.40;;;23.40;95.10;;;;;;5051838;28;20478;-25
2022/08/28 06:18:52;;;;;;;4.95;4.45;;;23.40;95.10;;;;;;5051845;28;20029;-25
2022/08/28 06:21:18;;;;;;;4.65;4.03;;;23.40;95.10;;;;;;5051847;28;20029;-25
2022/08/28 06:23:43;;;;;;;5.28;4.38;;;23.40;95.10;;;;;;5052031;28;20459;-25
2022/08/28 06:26:10;;;;;;;4.95;4.28;;;23.40;95.10;;;;;;5051788;28;20112;-25
2022/08/28 06:28:35;;;;;;;5.50;4.30;;;23.40;95.10;;;;;;5051731;28;20055;-25
2022/08/28 06:31:03;;;;;;;5.28;4.55;;;23.40;95.10;;;;;;5051663;28;20060;-25
2022/08/28 06:33:29;;;;;;;5.07;4.47;;;23.40;95.10;;;;;;5051791;28;20022;-26
2022/08/28 06:35:56;;;;;;;6.45;4.55;;;23.40;95.20;;;;;;5051530;28;20021;-25
2022/08/28 06:38:24;;;;;;;5.80;4.63;;;23.40;95.20;;;;;;5051729;28;20398;-26
2022/08/28 06:40:52;;;;;;;5.10;4.60;;;23.40;95.20;;;;;;5051428;28;20067;-25
2022/08/28 06:43:20;;;;;;;5.60;4.75;;;23.40;95.20;;;;;;5051721;28;20021;-25
2022/08/28 06:45:48;;;;;;;6.25;4.32;;;23.40;95.20;;;;;;5051666;28;20120;-25
2022/08/28 06:48:16;;;;;;;8.50;4.60;;;23.40;95.20;;;;;;5051674;28;20057;-25
2022/08/28 06:50:44;;;;;;;4.68;4.13;;;23.40;95.20;;;;;;5051401;28;20027;-25
2022/08/28 06:53:13;;;;;;;6.38;5.03;;;23.40;95.20;;;;;;5051575;28;20048;-25
2022/08/28 06:55:39;;;;;;;4.85;4.38;;;23.40;95.20;;;;;;5051391;28;20086;-25
2022/08/28 06:58:06;;;;;;;4.85;4.32;;;23.40;95.20;;;;;;5051569;28;20021;-25
2022/08/28 07:00:34;;;;;;;5.28;4.45;;;23.40;95.20;;;;;;5051356;28;20040;-27
2022/08/28 07:03:00;;;;;;;6.25;4.70;;;23.40;95.30;;;;;;5052372;28;20386;-25
2022/08/28 07:05:26;;;;;;;5.65;4.18;;;23.30;95.20;;;;;;5055415;28;20051;-25
2022/08/28 07:07:53;;;;;;;5.68;4.47;;;23.30;95.20;;;;;;5037263;28;20504;-25
2022/08/28 07:10:19;;;;;;;5.78;4.57;;;23.30;95.20;;;;;;5054934;28;20028;-25
2022/08/28 07:12:45;;;;;;;5.07;4.40;;;23.40;95.30;;;;;;5055402;28;20122;-25
2022/08/28 07:15:11;;;;;;;6.35;4.63;;;23.40;95.30;;;;;;5055159;28;20482;-25
2022/08/28 07:17:37;;;;;;;4.93;4.38;;;23.30;95.20;;;;;;5054993;28;20075;-27
2022/08/28 07:20:04;;;;;;;5.07;4.53;;;23.40;95.30;;;;;;5054906;28;20021;-26
2022/08/28 07:22:30;;;;;;;6.30;4.55;;;23.30;95.20;;;;;;5054978;28;20025;-25
2022/08/28 07:24:56;;;;;;;6.30;4.50;;;23.30;95.30;;;;;;5055143;28;20025;-25
2022/08/28 07:27:23;;;;;;;5.03;4.53;;;23.30;95.30;;;;;;5055059;28;20029;-25
2022/08/28 07:29:48;;;;;;;5.00;4.50;;;23.30;95.30;;;;;;5055090;28;20095;-25
2022/08/28 07:32:16;;;;;;;5.13;4.30;;;23.30;95.30;;;;;;5054737;28;20028;-26
2022/08/28 07:34:42;;;;;;;6.13;4.65;;;23.30;95.60;;;;;;5054921;28;20021;-26
2022/08/28 07:37:07;;;;;;;4.93;4.25;;;23.30;95.30;;;;;;5054536;28;20033;-26
2022/08/28 07:39:34;;;;;;;6.32;4.53;;;23.30;95.30;;;;;;5036802;28;20017;-26
2022/08/28 07:42:00;;;;;;;5.30;4.60;;;23.30;95.30;;;;;;5054718;28;20508;-26
2022/08/28 07:47:10;;;;;;;7.03;5.03;;;23.30;95.40;;;;;;5054807;28;20386;-25
2022/08/28 07:49:38;;;;;;;5.65;4.80;;;23.30;95.40;;;;;;5054392;28;20029;-27
2022/08/28 07:52:05;;;;;;;5.60;4.20;;;23.30;95.40;;;;;;5054361;28;20036;-25
2022/08/28 07:54:32;;;;;;;4.82;4.25;;;23.30;95.40;;;;;;5054628;28;20028;-25
2022/08/28 07:56:57;;;;;;;5.65;4.35;;;23.30;95.40;;;;;;5054381;28;20514;-25
2022/08/28 07:59:23;;;;;;;5.25;4.65;;;23.30;95.40;;;;;;5054302;28;20140;-25
2022/08/28 08:01:50;;;;;;;6.53;4.57;;;23.30;95.40;;;;;;5054285;28;20029;-25
2022/08/28 08:04:18;;;;;;;5.95;4.45;;;23.30;95.40;;;;;;5054138;28;20021;-25
2022/08/28 08:06:44;;;;;;;5.72;4.75;;;23.30;95.40;;;;;;5054160;28;20108;-25
2022/08/28 08:09:12;;;;;;;7.22;5.20;;;23.30;95.40;;;;;;5054080;28;20095;-25
2022/08/28 08:11:38;;;;;;;5.05;4.47;;;23.30;95.40;;;;;;5054132;28;20032;-25
2022/08/28 08:14:04;;;;;;;5.25;4.55;;;23.20;95.40;;;;;;5053939;28;20013;-25
2022/08/28 08:16:33;;;;;;;4.80;4.35;;;23.30;95.40;;;;;;5054053;28;20027;-25
2022/08/28 08:18:59;;;;;;;5.78;3.95;;;23.30;95.40;;;;;;5053855;28;20033;-26
2022/08/28 08:21:27;;;;;;;6.93;4.63;;;23.30;95.40;;;;;;5053999;28;20107;-25
2022/08/28 08:23:52;;;;;;;5.30;4.18;;;23.20;95.40;;;;;;5053904;28;20032;-25
2022/08/28 08:26:22;;;;;;;6.57;4.53;;;23.30;95.40;;;;;;5053864;28;20029;-25
2022/08/28 08:28:49;;;;;;;5.40;4.68;;;23.20;95.40;;;;;;5035799;28;20029;-25
2022/08/28 08:31:20;;;;;;;5.90;4.90;;;23.20;95.40;;;;;;5053677;28;20422;-25
2022/08/28 08:33:49;;;;;;;5.55;4.70;;;23.30;95.40;;;;;;5054000;28;20461;-27
2022/08/28 08:36:18;;;;;;;4.95;4.40;;;23.20;95.40;;;;;;5053550;28;20109;-25
2022/08/28 08:38:45;;;;;;;4.82;4.30;;;23.20;95.40;;;;;;5053516;28;20079;-26
2022/08/28 08:41:24;;;;;;;4.63;4.22;;;23.20;95.40;;;;;;5053758;28;20108;-25
2022/08/28 08:43:55;;;;;;;5.97;4.47;;;23.20;95.40;;;;;;5053487;28;20025;-26
2022/08/28 08:46:33;;;;;;;5.55;4.63;;;23.20;95.40;;;;;;5053642;28;20017;-25
2022/08/28 08:49:06;;;;;;;4.60;4.03;;;23.30;95.40;;;;;;5053360;28;20098;-25
2022/08/28 08:52:15;;;;;;;4.85;4.35;;;23.20;95.40;;;;;;5053250;28;20021;-25
2022/08/28 08:55:00;;;;;;;6.90;4.60;;;23.20;95.40;;;;;;5052679;28;20067;-25
2022/08/28 08:57:27;;;;;;;4.57;4.15;;;23.20;95.40;;;;;;5053310;28;20017;-26
2022/08/28 08:59:53;;;;;;;6.28;4.30;;;23.20;95.40;;;;;;5053245;28;20021;-25
2022/08/28 09:02:27;;;;;;;5.38;4.00;;;23.20;95.40;;;;;;5053138;28;20117;-26
2022/08/28 09:05:02;;;;;;;4.88;4.35;;;23.20;95.40;;;;;;5053405;28;20036;-25
2022/08/28 09:07:50;;;;;;;;;;;23.20;95.40;;;;;;5053584;28;20033;-26
2022/08/28 09:10:16;;;;;;;5.88;4.30;;;23.20;95.40;;;;;;5044649;28;19915;-25
2022/08/28 09:12:53;;;;;;;4.40;4.00;;;23.20;95.40;;;;;;5053223;28;20092;-25
2022/08/28 09:15:45;;;;;;;4.45;4.03;;;23.30;95.50;;;;;;5053117;28;20029;-26
2022/08/28 09:18:31;;;;;;;4.82;3.88;;;23.30;95.40;;;;;;5048204;28;20509;-25
2022/08/28 09:20:59;;;;;;;4.68;3.97;;;23.30;95.40;;;;;;5052823;28;20036;-26
2022/08/28 09:23:26;;;;;;;4.38;3.97;;;23.30;95.40;;;;;;5052969;28;20025;-25
2022/08/28 09:25:54;;;;;;;7.63;4.40;;;23.30;95.40;;;;;;5052386;28;20029;-25
2022/08/28 09:28:39;;;;;;;4.55;4.15;;;23.30;95.40;;;;;;5052796;28;20029;-25
2022/08/28 09:31:31;;;;;;;6.15;4.22;;;23.30;95.40;;;;;;5052688;28;20025;-25
2022/08/28 09:34:24;;;;;;;5.10;4.05;;;23.30;95.40;;;;;;5052615;28;20066;-25
2022/08/28 09:36:51;;;;;;;4.97;4.30;;;23.30;95.40;;;;;;5052546;28;20028;-25
2022/08/28 09:39:26;;;;;;;5.95;4.07;;;23.30;95.40;;;;;;5052439;28;20062;-25
2022/08/28 09:45:04;;;;;;;4.90;4.13;;;23.40;95.30;;;;;;5052494;28;20032;-26
2022/08/28 09:47:40;;;;;;;5.43;4.22;;;23.40;95.30;;;;;;5052361;28;20025;-26
2022/08/28 09:50:45;;;;;;;5.95;4.03;;;23.50;95.20;;;;;;5052164;28;20116;-25
2022/08/28 09:53:10;;;;;;;4.82;3.80;;;23.50;95.20;;;;;;5051561;28;20061;-25
2022/08/28 09:56:16;;;;;;;4.90;3.80;;;23.60;95.10;;;;;;5052371;28;20407;-25
2022/08/28 09:58:53;;;;;;;4.32;3.70;;;23.60;95.10;;;;;;5052184;28;20414;-25
2022/08/28 10:01:28;;;;;;;4.20;3.80;;;23.60;95.00;;;;;;5052214;28;20546;-25
2022/08/28 10:04:30;;;;;;;4.03;3.60;;;23.60;95.10;;;;;;5052241;28;20029;-25
2022/08/28 10:07:03;;;;;;;4.88;3.95;;;23.60;95.20;;;;;;5052581;28;20025;-25
2022/08/28 10:09:39;;;;;;;4.53;4.10;;;23.60;95.10;;;;;;5051971;28;20036;-25
2022/08/28 10:12:11;;;;;;;4.25;3.83;;;23.60;95.10;;;;;;5052021;28;20024;-25
2022/08/28 10:14:55;;;;;;;4.40;4.00;;;23.70;95.10;;;;;;5051979;28;20487;-27
2022/08/28 10:17:42;;;;;;;4.45;3.78;;;23.70;95.00;;;;;;5051979;28;20162;-25
2022/08/28 10:20:16;;;;;;;4.35;3.72;;;23.70;95.00;;;;;;5051918;28;20017;-25
2022/08/28 10:23:07;;;;;;;3.67;3.38;;;23.70;94.90;;;;;;5052114;28;20077;-26
2022/08/28 10:26:01;;;;;;;4.70;3.80;;;23.80;95.00;;;;;;5052052;28;20092;-26
2022/08/28 10:28:38;;;;;;;4.28;3.88;;;23.80;94.90;;;;;;5051877;28;20363;-25
2022/08/28 10:31:25;;;;;;;4.22;3.60;;;23.80;94.80;;;;;;5033722;28;20035;-26
2022/08/28 10:34:05;;;;;;;4.15;3.70;;;23.80;94.80;;;;;;5051850;28;20045;-25
2022/08/28 10:36:34;;;;;;;4.80;3.60;;;23.80;94.90;;;;;;5051696;28;20486;-26
2022/08/28 10:39:22;;;;;;;4.00;3.60;;;23.80;94.90;;;;;;5053958;28;20036;-25
2022/08/28 10:41:54;;;;;;;5.03;3.63;;;23.80;94.80;;;;;;5055849;28;20021;-26
2022/08/28 10:44:27;;;;;;;3.60;3.30;;;23.80;94.80;;;;;;5055851;28;20073;-27
2022/08/28 10:46:56;;;;;;;3.63;3.33;;;23.80;94.80;;;;;;5055757;28;20482;-25
2022/08/28 10:49:40;;;;;;;4.10;3.70;;;23.80;94.90;;;;;;5055650;28;20528;-25
2022/08/28 10:52:11;;;;;;;6.28;4.10;;;23.70;94.90;;;;;;5055724;28;20100;-25
2022/08/28 10:54:48;;;;;;;3.47;3.08;;;23.70;95.00;;;;;;5055736;28;20028;-26
2022/08/28 10:57:30;;;;;;;3.53;3.05;;;23.80;95.00;;;;;;5055311;28;20017;-25
2022/08/28 10:59:59;;;;;;;3.80;3.40;;;23.80;94.90;;;;;;5055425;28;20059;-26
2022/08/28 11:02:26;;;;;;;3.97;3.47;;;23.90;94.80;;;;;;5055752;28;20378;-26
2022/08/28 11:04:54;;;;;;;4.65;3.47;;;23.90;94.70;;;;;;5055386;28;20024;-25
2022/08/28 11:07:44;;;;;;;4.00;3.42;;;23.90;94.70;;;;;;5055324;28;20042;-25
2022/08/28 11:10:18;;;;;;;3.80;3.42;;;24.00;94.70;;;;;;5055207;28;20128;-25
2022/08/28 11:12:44;;;;;;;;;;;24.10;94.60;;;;;;5055873;28;20017;-25
2022/08/28 11:15:27;;;;;;;4.93;3.28;;;24.10;94.50;;;;;;5055280;28;19905;-25
2022/08/28 11:17:56;;;;;;;4.90;3.80;;;24.10;94.50;;;;;;5055103;28;20505;-25
2022/08/28 11:20:28;;;;;;;4.43;3.63;;;24.10;94.50;;;;;;5055062;28;20529;-25
2022/08/28 11:23:09;;;;;;;4.38;3.80;;;24.10;94.50;;;;;;5055100;28;20466;-27
2022/08/28 11:25:46;;;;;;;3.65;3.10;;;24.10;94.50;;;;;;5055597;28;20022;-25
2022/08/28 11:28:24;;;;;;;3.80;2.80;;;24.10;94.50;;;;;;5054883;28;20047;-25
2022/08/28 11:31:13;;;;;;;3.72;3.33;;;24.10;94.50;;;;;;5054699;28;20486;-25
2022/08/28 11:33:40;;;;;;;5.57;3.33;;;24.20;94.40;;;;;;5041726;28;20037;-26
2022/08/28 11:36:31;;;;;;;4.18;3.40;;;24.10;94.40;;;;;;5054728;28;20025;-25
2022/08/28 11:39:12;;;;;;;4.00;3.25;;;24.10;94.50;;;;;;5062159;22;20056;-23
2022/08/28 11:41:58;;;;;;;3.78;3.42;;;24.10;94.50;;;;;;5034870;28;20036;-23
2022/08/28 11:44:27;;;;;;;3.45;3.15;;;24.10;94.50;;;;;;5034713;28;20094;-23
2022/08/28 11:47:31;;;;;;;3.25;2.95;;;24.20;94.50;;;;;;5034714;28;20048;-24
2022/08/28 11:50:09;;;;;;;4.15;3.50;;;24.20;94.40;;;;;;5014145;28;20161;-23
2022/08/28 11:52:41;;;;;;;5.13;3.30;;;24.20;94.30;;;;;;5014892;28;20042;-24
2022/08/28 11:55:23;;;;;;;3.58;3.22;;;24.30;94.30;;;;;;5014787;28;20113;-23
2022/08/28 11:58:07;;;;;;;4.80;3.22;;;24.20;94.30;;;;;;5014617;28;20061;-24
2022/08/28 12:00:51;;;;;;;4.57;3.65;;;24.20;94.30;;;;;;4997014;28;20022;-24
2022/08/28 12:03:37;;;;;;;4.25;3.30;;;24.30;94.30;;;;;;5014708;28;20061;-23
2022/08/28 12:06:04;;;;;;;3.63;3.20;;;24.30;94.30;;;;;;5014618;28;20037;-23
2022/08/28 12:08:54;;;;;;;4.10;3.40;;;24.30;94.30;;;;;;5014270;28;20040;-23
2022/08/28 12:11:38;;;;;;;3.53;3.13;;;24.30;94.20;;;;;;5002671;28;20034;-23
2022/08/28 12:14:30;;;;;;;3.80;3.40;;;24.30;94.20;;;;;;5014486;28;20411;-23
2022/08/28 12:16:58;;;;;;;3.40;3.10;;;24.40;94.20;;;;;;4983890;28;20049;-24
2022/08/28 12:19:47;;;;;;;3.75;3.40;;;24.40;94.20;;;;;;4996877;28;20084;-23
2022/08/28 12:22:17;;;;;;;4.07;3.20;;;24.40;94.10;;;;;;5015511;28;20022;-23
2022/08/28 12:24:57;;;;;;;4.40;3.50;;;24.50;94.10;;;;;;5020406;28;20030;-23
2022/08/28 12:27:24;;;;;;;3.28;2.97;;;24.50;94.10;;;;;;5017438;28;20030;-23
2022/08/28 12:29:53;;;;;;;3.47;3.17;;;24.50;94.10;;;;;;5014627;28;20065;-24
2022/08/28 12:32:28;;;;;;;4.70;3.40;;;24.50;94.00;;;;;;5014115;28;20113;-24
2022/08/28 12:34:56;;;;;;;3.40;3.10;;;24.50;94.00;;;;;;5014334;28;20533;-24
2022/08/28 12:37:30;;;;;;;3.55;3.17;;;24.50;94.00;;;;;;5013822;28;20037;-23
2022/08/28 12:40:06;;;;;;;4.13;3.28;;;24.50;94.00;;;;;;5013986;28;20050;-24
2022/08/28 12:42:36;;;;;;;4.00;3.08;;;24.50;94.00;;;;;;5014160;28;20029;-23
2022/08/28 12:45:06;;;;;;;6.47;3.58;;;24.50;94.00;;;;;;5014102;28;20018;-24
2022/08/28 12:47:33;;;;;;;54.95;6.63;;;24.50;93.90;;;;;;5013887;28;20029;-24
2022/08/28 12:50:35;;;;;;;21.27;4.55;;;24.50;91.80;;;;;;5013631;28;20109;-23
2022/08/28 12:53:04;;;;;;;34.25;5.47;;;24.50;91.80;;;;;;5014565;28;20034;-24
2022/08/28 12:55:30;;;;;;;27.40;5.30;;;24.60;92.00;;;;;;5013834;28;20447;-24
2022/08/28 12:57:56;;;;;;;24.17;5.20;;;24.60;92.20;;;;;;5013470;28;20427;-24
2022/08/28 13:00:31;;;;;;;22.52;5.20;;;24.70;92.20;;;;;;5012830;28;20018;-23
2022/08/28 13:02:59;;;;;;;23.15;5.25;;;24.70;92.30;;;;;;5013583;28;20436;-24
2022/08/28 13:05:32;;;;;;;21.23;4.97;;;24.70;92.40;;;;;;5013391;28;20021;-24
2022/08/28 13:08:03;;;;;;;14.55;5.05;;;24.80;92.40;;;;;;5013297;28;20022;-24
2022/08/28 13:10:33;;;;;;;26.10;5.07;;;24.80;92.40;;;;;;5013218;28;20022;-24
2022/08/28 13:13:03;;;;;;;11.70;4.70;;;24.80;92.50;;;;;;5013350;28;20022;-24
2022/08/28 13:15:54;;;;;;;16.17;4.65;;;24.80;92.50;;;;;;5013447;28;20026;-24
2022/08/28 13:19:09;;;;;;;14.02;4.55;;;24.70;92.60;;;;;;5013257;28;20458;-24